Time;durP1;ratioP1;P1;durP2;ratioP2;P2;SDS_P1;SDS_P2;PMS_P1;PMS_P2;Temp;Humidity;BMP_temperature;BMP_pressure;BME280_temperature;BME280_humidity;BME280_pressure;Samples;Min_cycle;Max_cycle;Signal;HPM_P1;HPM_P2
2021/01/30 00:00:36;;;;;;;5.97;1.98;;;1.60;99.90;;;;;;5070261;28;20053;-69
2021/01/30 00:03:03;;;;;;;6.47;2.03;;;1.70;99.90;;;;;;5065270;28;20048;-69
2021/01/30 00:05:29;;;;;;;9.07;2.10;;;1.60;99.90;;;;;;5082514;28;20048;-69
2021/01/30 00:07:55;;;;;;;5.25;1.83;;;1.70;99.90;;;;;;5085243;28;20097;-70
2021/01/30 00:10:22;;;;;;;7.22;2.40;;;1.70;99.90;;;;;;5085475;28;20044;-70
2021/01/30 00:12:48;;;;;;;9.82;2.63;;;1.70;99.90;;;;;;5085083;28;20067;-70
2021/01/30 00:15:16;;;;;;;5.07;2.47;;;1.80;99.90;;;;;;5079317;28;20136;-70
2021/01/30 00:17:42;;;;;;;7.05;3.17;;;1.70;99.90;;;;;;5085029;28;20068;-70
2021/01/30 00:20:09;;;;;;;7.20;2.55;;;1.80;99.90;;;;;;5084823;28;20133;-70
2021/01/30 00:22:35;;;;;;;8.77;2.00;;;1.80;99.90;;;;;;5084856;28;20126;-70
2021/01/30 00:25:01;;;;;;;10.35;2.70;;;1.80;99.90;;;;;;5084701;28;20335;-69
2021/01/30 00:27:27;;;;;;;5.68;2.47;;;1.70;99.90;;;;;;5084451;28;20056;-69
2021/01/30 00:29:52;;;;;;;5.22;2.55;;;1.80;99.90;;;;;;5084098;28;20066;-70
2021/01/30 00:32:20;;;;;;;7.97;2.35;;;1.70;99.90;;;;;;5082510;28;20550;-70
2021/01/30 00:34:46;;;;;;;7.75;2.60;;;1.80;99.90;;;;;;5084873;28;20047;-70
2021/01/30 00:37:18;;;;;;;8.38;2.65;;;1.90;99.90;;;;;;5085063;28;20515;-68
2021/01/30 00:39:44;;;;;;;10.25;2.95;;;1.90;99.90;;;;;;5083816;28;20519;-70
2021/01/30 00:42:13;;;;;;;8.68;3.10;;;1.90;99.90;;;;;;5078051;28;20048;-69
2021/01/30 00:44:39;;;;;;;7.05;3.00;;;1.80;99.90;;;;;;5070450;28;20052;-69
2021/01/30 00:47:06;;;;;;;8.70;3.25;;;1.80;99.90;;;;;;5083195;28;20048;-69
2021/01/30 00:49:32;;;;;;;7.00;2.80;;;1.80;99.90;;;;;;5083959;28;20131;-68
2021/01/30 00:51:57;;;;;;;7.32;3.25;;;1.80;99.90;;;;;;5084052;28;20048;-69
2021/01/30 00:54:23;;;;;;;7.85;3.20;;;1.80;99.90;;;;;;5083657;28;20097;-69
2021/01/30 00:56:51;;;;;;;7.70;3.13;;;1.90;99.90;;;;;;5083768;28;20131;-69
2021/01/30 00:59:16;;;;;;;9.65;2.75;;;1.90;99.90;;;;;;5083175;28;20182;-69
2021/01/30 01:01:43;;;;;;;13.18;3.30;;;1.90;99.90;;;;;;5083377;28;20044;-69
2021/01/30 01:04:09;;;;;;;8.40;2.97;;;1.90;99.90;;;;;;5082974;28;20504;-69
2021/01/30 01:06:35;;;;;;;8.52;3.13;;;1.80;99.90;;;;;;5083538;28;20650;-69
2021/01/30 01:09:03;;;;;;;12.55;3.45;;;1.80;99.90;;;;;;5080626;28;20423;-69
2021/01/30 01:11:29;;;;;;;6.35;3.15;;;1.70;99.90;;;;;;5083134;28;20489;-68
2021/01/30 01:13:55;;;;;;;9.40;3.60;;;1.60;99.90;;;;;;5083275;28;20280;-68
2021/01/30 01:16:20;;;;;;;11.00;3.05;;;1.50;99.90;;;;;;5081365;28;20531;-70
2021/01/30 01:18:47;;;;;;;6.38;3.63;;;1.50;99.90;;;;;;5083760;28;20058;-69
2021/01/30 01:21:14;;;;;;;14.13;3.47;;;1.50;99.90;;;;;;5083177;28;20040;-70
2021/01/30 01:23:41;;;;;;;11.35;3.60;;;1.50;99.90;;;;;;5084432;28;20407;-69
2021/01/30 01:26:08;;;;;;;13.27;3.70;;;1.50;99.90;;;;;;5083351;28;20109;-70
2021/01/30 01:28:34;;;;;;;9.20;3.42;;;1.40;99.90;;;;;;5081603;28;20143;-70
2021/01/30 01:30:59;;;;;;;10.73;3.53;;;1.50;99.90;;;;;;5081944;28;20314;-69
2021/01/30 01:33:25;;;;;;;12.73;4.75;;;1.40;99.90;;;;;;5081695;28;20052;-69
2021/01/30 01:35:51;;;;;;;10.10;3.20;;;1.40;99.90;;;;;;5080440;28;20047;-69
2021/01/30 01:38:16;;;;;;;16.42;3.15;;;1.40;99.90;;;;;;5082261;28;20052;-70
2021/01/30 01:40:42;;;;;;;8.13;2.80;;;1.50;99.90;;;;;;5083495;28;20048;-70
2021/01/30 01:43:16;;;;;;;13.63;3.38;;;1.50;99.90;;;;;;5084038;28;20036;-68
2021/01/30 01:45:42;;;;;;;4.68;2.50;;;1.50;99.90;;;;;;5081496;28;20044;-69
2021/01/30 01:48:23;;;;;;;7.63;4.05;;;1.50;99.90;;;;;;5083475;28;20051;-70
2021/01/30 01:50:51;;;;;;;9.20;2.80;;;1.50;99.90;;;;;;5082717;28;20044;-69
2021/01/30 01:53:25;;;;;;;7.13;3.08;;;1.70;99.90;;;;;;5082207;28;20051;-69
2021/01/30 01:55:57;;;;;;;9.13;3.65;;;1.70;99.90;;;;;;5082895;28;20438;-69
2021/01/30 01:58:23;;;;;;;9.65;2.65;;;1.60;99.90;;;;;;5083067;28;20087;-69
2021/01/30 02:00:51;;;;;;;9.05;3.13;;;1.60;99.90;;;;;;5082028;28;20492;-70
2021/01/30 02:03:19;;;;;;;6.88;2.70;;;1.60;99.90;;;;;;5082723;28;20044;-69
2021/01/30 02:05:45;;;;;;;7.57;3.08;;;1.50;99.90;;;;;;5080990;28;20193;-70
2021/01/30 02:08:13;;;;;;;7.82;3.30;;;1.50;99.90;;;;;;5082586;28;20068;-69
2021/01/30 02:10:45;;;;;;;12.02;2.65;;;1.40;99.90;;;;;;5067360;28;20080;-70
2021/01/30 02:13:15;;;;;;;9.00;2.72;;;1.40;99.90;;;;;;5063122;28;20132;-70
2021/01/30 02:15:44;;;;;;;7.03;3.03;;;1.40;99.90;;;;;;5080326;28;20044;-69
2021/01/30 02:18:39;;;;;;;5.70;2.38;;;1.40;99.90;;;;;;5082825;28;20453;-69
2021/01/30 02:21:39;;;;;;;10.20;3.25;;;1.40;99.90;;;;;;5083005;28;20052;-69
2021/01/30 02:24:54;;;;;;;11.13;3.70;;;1.30;99.90;;;;;;5081936;28;20048;-69
2021/01/30 02:27:50;;;;;;;8.75;3.25;;;1.30;99.90;;;;;;5081988;28;20139;-69
2021/01/30 02:30:37;;;;;;;9.73;3.65;;;1.20;99.90;;;;;;5081632;28;20056;-69
2021/01/30 02:33:14;;;;;;;9.98;2.80;;;1.20;99.90;;;;;;5083149;28;20058;-69
2021/01/30 02:36:06;;;;;;;8.43;2.75;;;1.20;99.90;;;;;;5081946;28;20134;-69
2021/01/30 02:38:34;;;;;;;14.23;3.72;;;1.10;99.90;;;;;;5082059;28;20047;-68
2021/01/30 02:41:14;;;;;;;9.52;3.42;;;1.10;99.90;;;;;;5082885;28;20507;-69
2021/01/30 02:43:44;;;;;;;10.52;4.15;;;1.10;99.90;;;;;;5080445;28;20041;-69
2021/01/30 02:46:19;;;;;;;11.25;3.42;;;1.10;99.90;;;;;;5081899;28;20059;-69
2021/01/30 02:48:47;;;;;;;11.40;4.07;;;1.10;99.90;;;;;;5077808;28;20036;-69
2021/01/30 02:51:22;;;;;;;9.70;3.50;;;1.00;99.90;;;;;;5066728;28;20135;-69
2021/01/30 02:53:54;;;;;;;8.32;3.58;;;0.90;99.90;;;;;;5074218;28;20052;-69
2021/01/30 02:56:21;;;;;;;9.98;3.75;;;0.90;99.90;;;;;;5086625;28;20097;-69
2021/01/30 02:58:57;;;;;;;11.40;4.72;;;1.00;99.90;;;;;;5082023;28;20109;-68
2021/01/30 03:01:23;;;;;;;12.15;4.30;;;1.10;99.90;;;;;;5064840;28;20155;-69
2021/01/30 03:03:54;;;;;;;8.00;3.65;;;1.00;99.90;;;;;;5074026;28;20055;-68
2021/01/30 03:06:46;;;;;;;9.65;4.20;;;1.00;99.90;;;;;;5086311;28;20071;-69
2021/01/30 03:09:26;;;;;;;10.68;4.20;;;1.00;99.90;;;;;;5084517;28;20428;-69
2021/01/30 03:12:01;;;;;;;7.90;4.53;;;0.90;99.90;;;;;;5086597;28;20044;-69
2021/01/30 03:14:28;;;;;;;17.42;4.85;;;0.90;99.90;;;;;;5083181;28;20040;-68
2021/01/30 03:16:59;;;;;;;7.60;3.67;;;0.90;99.90;;;;;;5086670;28;20055;-69
2021/01/30 03:19:29;;;;;;;11.52;4.18;;;0.80;99.90;;;;;;5085358;28;20105;-69
2021/01/30 03:22:05;;;;;;;7.50;4.50;;;0.80;99.90;;;;;;5086370;28;20560;-69
2021/01/30 03:24:31;;;;;;;8.20;4.15;;;0.90;99.90;;;;;;5084117;28;20055;-69
2021/01/30 03:26:57;;;;;;;8.88;4.85;;;0.80;99.90;;;;;;5085233;28;20048;-69
2021/01/30 03:29:23;;;;;;;7.18;4.38;;;0.80;99.90;;;;;;5085059;28;20503;-68
2021/01/30 03:31:49;;;;;;;8.38;4.40;;;0.70;99.90;;;;;;5085995;28;20120;-70
2021/01/30 03:34:16;;;;;;;10.15;4.50;;;0.70;99.90;;;;;;5085060;28;20048;-69
2021/01/30 03:36:42;;;;;;;6.53;4.10;;;0.70;99.90;;;;;;5084411;28;20051;-69
2021/01/30 03:39:13;;;;;;;8.93;4.57;;;0.70;99.90;;;;;;5084817;28;20040;-69
2021/01/30 03:41:40;;;;;;;12.75;4.60;;;0.80;99.90;;;;;;5085183;28;20067;-69
2021/01/30 03:44:05;;;;;;;11.50;4.60;;;0.70;99.90;;;;;;5084171;28;20047;-69
2021/01/30 03:46:31;;;;;;;10.73;4.93;;;0.70;99.90;;;;;;5085823;28;20044;-69
2021/01/30 03:48:56;;;;;;;12.10;4.53;;;0.70;99.90;;;;;;5084807;28;20083;-68
2021/01/30 03:51:22;;;;;;;14.20;4.80;;;0.70;99.90;;;;;;5065120;28;20487;-70
2021/01/30 03:53:48;;;;;;;9.48;4.55;;;0.70;99.90;;;;;;5081680;28;20063;-68
2021/01/30 03:56:13;;;;;;;8.77;4.60;;;0.70;99.90;;;;;;5085144;28;20044;-69
2021/01/30 03:58:40;;;;;;;7.72;4.60;;;0.60;99.90;;;;;;5084719;28;20056;-68
2021/01/30 04:01:06;;;;;;;7.82;4.38;;;0.70;99.90;;;;;;5083305;28;20086;-70
2021/01/30 04:03:32;;;;;;;15.32;4.93;;;0.70;99.90;;;;;;5084686;28;20044;-68
2021/01/30 04:05:58;;;;;;;8.82;4.50;;;0.70;99.90;;;;;;5074193;28;20052;-69
2021/01/30 04:08:23;;;;;;;13.25;5.20;;;0.70;99.90;;;;;;5075505;28;20044;-69
2021/01/30 04:10:49;;;;;;;12.88;5.13;;;0.80;99.90;;;;;;5082317;28;20048;-69
2021/01/30 04:13:17;;;;;;;7.22;3.90;;;0.70;99.90;;;;;;5084611;28;20097;-68
2021/01/30 04:15:43;;;;;;;10.07;4.45;;;0.70;99.90;;;;;;5084065;28;20056;-69
2021/01/30 04:18:10;;;;;;;11.95;4.63;;;0.70;99.90;;;;;;5083760;28;20460;-68
2021/01/30 04:20:35;;;;;;;10.52;4.60;;;0.60;99.90;;;;;;5083164;28;20322;-69
2021/01/30 04:23:02;;;;;;;11.30;4.38;;;0.50;99.90;;;;;;5084782;28;20502;-68
2021/01/30 04:25:28;;;;;;;8.85;4.75;;;0.50;99.90;;;;;;5083120;28;20050;-69
2021/01/30 04:27:55;;;;;;;9.48;4.53;;;0.50;99.90;;;;;;5085121;28;20056;-70
2021/01/30 04:30:24;;;;;;;10.52;4.30;;;0.50;99.90;;;;;;5083492;28;20040;-68
2021/01/30 04:32:50;;;;;;;10.20;4.60;;;0.50;99.90;;;;;;5085219;28;20048;-69
2021/01/30 04:35:19;;;;;;;8.50;4.53;;;0.40;99.90;;;;;;5083422;28;20049;-68
2021/01/30 04:37:44;;;;;;;10.45;4.55;;;0.50;99.90;;;;;;5064386;28;20106;-68
2021/01/30 04:40:20;;;;;;;8.32;4.70;;;0.50;99.90;;;;;;5064519;28;20044;-69
2021/01/30 04:42:53;;;;;;;14.82;4.78;;;0.50;99.90;;;;;;5083911;28;20144;-70
2021/01/30 04:45:27;;;;;;;;;;;0.50;99.90;;;;;;5083070;28;20050;-68
2021/01/30 04:48:01;;;;;;;5.93;3.92;;;0.40;99.90;;;;;;5064701;28;20004;-69
2021/01/30 04:50:43;;;;;;;13.20;3.92;;;0.30;99.90;;;;;;5069027;28;20066;-68
2021/01/30 04:53:36;;;;;;;7.63;4.38;;;0.30;99.90;;;;;;5084308;28;20104;-69
2021/01/30 04:56:22;;;;;;;4.95;3.83;;;0.30;99.90;;;;;;5083572;28;20479;-69
2021/01/30 04:59:13;;;;;;;12.07;5.00;;;0.40;99.90;;;;;;5083538;28;20508;-68
2021/01/30 05:01:48;;;;;;;6.38;3.80;;;0.30;99.90;;;;;;5083543;28;20051;-68
2021/01/30 05:04:32;;;;;;;12.43;4.80;;;0.40;99.90;;;;;;5084208;28;20333;-69
2021/01/30 05:07:09;;;;;;;7.25;4.30;;;0.30;99.90;;;;;;5083668;28;20040;-69
2021/01/30 05:10:31;;;;;;;11.23;4.07;;;0.20;99.90;;;;;;5084213;28;20471;-68
2021/01/30 05:13:04;;;;;;;12.35;3.67;;;0.20;99.90;;;;;;5040271;28;20048;-68
2021/01/30 05:15:35;;;;;;;6.57;4.07;;;0.20;99.90;;;;;;5042237;28;20536;-69
2021/01/30 05:18:03;;;;;;;8.07;4.18;;;0.20;99.90;;;;;;5068984;28;20048;-68
2021/01/30 05:20:33;;;;;;;4.22;3.25;;;0.40;99.90;;;;;;5083351;28;20244;-70
2021/01/30 05:23:00;;;;;;;6.40;4.00;;;0.40;99.90;;;;;;5083364;28;20411;-69
2021/01/30 05:25:27;;;;;;;7.95;4.47;;;0.40;99.90;;;;;;5082774;28;20101;-69
2021/01/30 05:28:06;;;;;;;8.13;3.83;;;0.40;99.90;;;;;;5082456;28;20531;-69
2021/01/30 05:30:58;;;;;;;10.25;4.07;;;0.40;99.90;;;;;;5081756;28;20082;-68
2021/01/30 05:33:46;;;;;;;20.13;4.68;;;0.50;99.90;;;;;;5083720;28;20073;-68
2021/01/30 05:36:22;;;;;;;7.30;3.53;;;0.40;99.90;;;;;;5079871;28;20380;-68
2021/01/30 05:39:23;;;;;;;7.90;4.28;;;0.30;99.90;;;;;;5083868;28;20048;-68
2021/01/30 05:42:08;;;;;;;13.25;4.50;;;0.30;99.90;;;;;;5082834;28;20139;-70
2021/01/30 05:45:02;;;;;;;7.90;3.55;;;0.30;99.90;;;;;;5081803;28;20395;-69
2021/01/30 05:47:31;;;;;;;10.05;3.22;;;0.30;99.90;;;;;;5082522;28;20396;-70
2021/01/30 05:50:02;;;;;;;7.47;3.97;;;0.20;99.90;;;;;;5083357;28;20044;-69
2021/01/30 05:52:33;;;;;;;7.63;3.83;;;0.20;99.90;;;;;;5083783;28;20071;-69
2021/01/30 05:55:00;;;;;;;8.00;4.45;;;0.20;99.90;;;;;;5082676;28;20123;-69
2021/01/30 05:57:25;;;;;;;12.65;4.70;;;0.20;99.90;;;;;;5082653;28;20444;-69
2021/01/30 05:59:57;;;;;;;14.52;5.45;;;0.20;99.90;;;;;;5083121;28;20537;-69
2021/01/30 06:02:26;;;;;;;11.30;5.45;;;0.10;99.90;;;;;;5081974;28;20130;-69
2021/01/30 06:04:51;;;;;;;10.05;4.90;;;0.10;99.90;;;;;;5083410;28;20051;-69
2021/01/30 06:07:27;;;;;;;13.40;6.10;;;0.10;99.90;;;;;;5082357;28;20158;-69
2021/01/30 06:09:53;;;;;;;9.25;5.72;;;0.10;99.90;;;;;;5083010;28;20279;-69
2021/01/30 06:12:29;;;;;;;8.73;5.00;;;0.00;99.90;;;;;;5082381;28;20040;-69
2021/01/30 06:15:05;;;;;;;13.27;5.93;;;0.10;99.90;;;;;;5081977;28;20481;-70
2021/01/30 06:17:33;;;;;;;12.85;5.30;;;0.00;99.90;;;;;;5081411;28;20074;-68
2021/01/30 06:20:05;;;;;;;10.70;5.05;;;-0.10;99.90;;;;;;5082832;28;20129;-69
2021/01/30 06:22:31;;;;;;;10.63;5.30;;;-0.10;99.90;;;;;;5082114;28;20036;-69
2021/01/30 06:24:56;;;;;;;9.02;5.20;;;-0.10;99.90;;;;;;5082119;28;20048;-69
2021/01/30 06:27:27;;;;;;;8.32;5.85;;;0.00;99.90;;;;;;5082802;28;20404;-69
2021/01/30 06:30:01;;;;;;;10.13;5.90;;;0.00;99.90;;;;;;5082632;28;20043;-68
2021/01/30 06:32:38;;;;;;;10.15;5.30;;;-0.10;99.90;;;;;;5081456;28;20585;-69
2021/01/30 06:35:18;;;;;;;12.60;5.75;;;-0.10;99.90;;;;;;5082393;28;20147;-69
2021/01/30 06:37:53;;;;;;;13.07;5.72;;;-0.10;99.90;;;;;;5077997;28;20105;-68
2021/01/30 06:40:29;;;;;;;8.25;5.18;;;-0.10;99.90;;;;;;5082707;28;20754;-68
2021/01/30 06:43:10;;;;;;;13.70;6.18;;;-0.10;99.90;;;;;;5082326;28;20048;-68
2021/01/30 06:45:39;;;;;;;11.32;5.82;;;0.00;99.90;;;;;;5080883;28;20040;-69
2021/01/30 06:48:09;;;;;;;10.45;5.88;;;0.00;99.90;;;;;;5082620;28;20044;-70
2021/01/30 06:50:38;;;;;;;10.32;5.45;;;0.00;99.90;;;;;;5082107;28;20654;-69
2021/01/30 06:53:29;;;;;;;7.95;5.68;;;0.00;99.90;;;;;;5062670;28;20052;-70
2021/01/30 06:56:09;;;;;;;15.43;5.90;;;0.00;99.90;;;;;;5067500;28;20044;-71
2021/01/30 06:58:41;;;;;;;14.27;6.65;;;0.00;99.90;;;;;;5081330;28;20051;-68
2021/01/30 07:01:20;;;;;;;9.70;5.85;;;0.00;99.90;;;;;;5081374;28;20139;-70
2021/01/30 07:04:15;;;;;;;10.55;6.10;;;-0.10;99.90;;;;;;5082680;28;20399;-69
2021/01/30 07:07:04;;;;;;;17.23;6.53;;;-0.10;99.90;;;;;;5082244;28;20051;-69
2021/01/30 07:09:47;;;;;;;13.23;6.28;;;-0.10;99.90;;;;;;5076292;28;20582;-69
2021/01/30 07:12:19;;;;;;;10.85;5.80;;;-0.10;99.90;;;;;;5079305;28;20492;-71
2021/01/30 07:15:05;;;;;;;12.20;6.20;;;-0.10;99.90;;;;;;5079160;28;20515;-68
2021/01/30 07:17:58;;;;;;;9.73;4.97;;;-0.20;99.90;;;;;;5080078;28;20081;-69
2021/01/30 07:20:42;;;;;;;15.05;6.57;;;-0.10;99.90;;;;;;5073940;28;20102;-70
2021/01/30 07:23:30;;;;;;;12.48;6.82;;;-0.20;99.90;;;;;;5081517;28;20568;-69
2021/01/30 07:26:20;;;;;;;9.82;6.82;;;-0.20;99.90;;;;;;5081616;28;20040;-69
2021/01/30 07:28:54;;;;;;;11.75;6.35;;;-0.20;99.90;;;;;;5080956;28;20048;-69
2021/01/30 07:31:46;;;;;;;17.88;7.22;;;-0.20;99.90;;;;;;5081877;28;20058;-68
2021/01/30 07:34:22;;;;;;;11.25;6.30;;;-0.10;99.90;;;;;;5075897;28;20431;-69
2021/01/30 07:36:53;;;;;;;14.23;6.65;;;0.10;99.90;;;;;;5084929;28;20127;-69
2021/01/30 07:39:43;;;;;;;14.30;6.63;;;0.10;99.90;;;;;;5083703;28;20056;-70
2021/01/30 07:42:26;;;;;;;12.18;6.30;;;0.30;99.90;;;;;;5078893;28;20393;-69
2021/01/30 07:45:30;;;;;;;13.50;6.10;;;0.60;99.90;;;;;;5080239;28;20051;-69
2021/01/30 07:48:14;;;;;;;11.40;6.32;;;0.80;99.90;;;;;;5050008;28;20121;-69
2021/01/30 07:50:44;;;;;;;9.77;6.80;;;1.00;99.90;;;;;;5062997;28;20048;-69
2021/01/30 07:53:23;;;;;;;10.48;6.07;;;1.40;99.90;;;;;;5105849;27;20043;-68
2021/01/30 07:56:12;;;;;;;8.73;5.55;;;1.60;99.90;;;;;;5083788;28;20093;-69
2021/01/30 07:59:03;;;;;;;9.93;5.75;;;2.00;99.90;;;;;;5080978;28;20059;-68
2021/01/30 08:01:50;;;;;;;10.13;6.07;;;2.60;99.90;;;;;;5084945;28;20059;-69
2021/01/30 08:04:34;;;;;;;8.55;5.30;;;3.10;99.90;;;;;;5082876;28;20062;-69
2021/01/30 08:07:38;;;;;;;12.25;4.78;;;3.60;99.90;;;;;;5083639;28;20036;-70
2021/01/30 08:10:44;;;;;;;6.13;4.70;;;4.10;99.90;;;;;;5081116;28;20097;-69
2021/01/30 08:13:34;;;;;;;9.82;4.75;;;4.50;99.90;;;;;;5044638;28;20394;-68
2021/01/30 08:16:32;;;;;;;9.43;4.10;;;5.30;99.90;;;;;;5064597;28;20141;-70
2021/01/30 08:19:03;;;;;;;10.27;5.80;;;5.10;99.90;;;;;;5084118;28;20052;-70
2021/01/30 08:21:52;;;;;;;9.25;4.68;;;4.90;99.90;;;;;;5082933;28;20047;-69
2021/01/30 08:24:27;;;;;;;12.15;4.95;;;4.70;99.90;;;;;;5079217;28;20337;-69
2021/01/30 08:27:08;;;;;;;10.82;5.45;;;5.10;99.90;;;;;;5083271;28;20054;-68
2021/01/30 08:29:41;;;;;;;14.40;4.97;;;5.30;99.90;;;;;;5082589;28;20052;-69
2021/01/30 08:32:25;;;;;;;;;;;5.80;99.90;;;;;;5084112;28;20382;-68
2021/01/30 08:34:51;;;;;;;;;;;6.00;99.90;;;;;;5085141;28;19920;-70
2021/01/30 08:37:20;;;;;;;8.32;4.03;;;6.20;99.90;;;;;;5083729;28;20363;-68
2021/01/30 08:40:00;;;;;;;6.85;3.78;;;6.90;99.90;;;;;;5082802;28;20417;-68
2021/01/30 08:42:31;;;;;;;7.57;3.95;;;7.00;99.90;;;;;;5083267;28;20060;-70
2021/01/30 08:45:03;;;;;;;6.57;3.75;;;7.20;99.90;;;;;;5089640;28;20071;-69
2021/01/30 08:47:31;;;;;;;8.82;4.50;;;7.20;99.90;;;;;;5098373;28;20509;-70
2021/01/30 08:50:25;;;;;;;7.93;4.07;;;6.80;99.90;;;;;;5083072;28;20119;-69
2021/01/30 08:52:52;;;;;;;6.53;4.53;;;6.40;99.90;;;;;;5081769;28;20083;-68
2021/01/30 08:55:38;;;;;;;10.77;4.38;;;6.50;99.90;;;;;;5079421;28;20330;-70
2021/01/30 08:58:04;;;;;;;7.68;4.32;;;6.90;99.90;;;;;;5082374;28;20046;-70
2021/01/30 09:00:35;;;;;;;9.48;4.63;;;6.90;99.90;;;;;;5082510;28;20051;-69
2021/01/30 09:03:04;;;;;;;7.90;4.45;;;7.30;99.90;;;;;;5082817;28;20396;-69
2021/01/30 09:05:32;;;;;;;6.15;4.13;;;6.70;99.90;;;;;;5083381;28;20044;-69
2021/01/30 09:08:10;;;;;;;8.13;4.85;;;7.00;99.90;;;;;;5083447;28;20079;-68
2021/01/30 09:10:41;;;;;;;5.53;3.80;;;7.20;99.90;;;;;;5080440;28;20146;-71
2021/01/30 09:13:12;;;;;;;12.55;3.78;;;7.70;98.80;;;;;;5081759;28;20043;-70
2021/01/30 09:15:38;;;;;;;5.97;4.53;;;7.20;98.90;;;;;;5080582;28;20075;-69
2021/01/30 09:18:26;;;;;;;7.38;3.92;;;7.30;99.60;;;;;;5084897;28;20428;-69
2021/01/30 09:21:17;;;;;;;9.57;3.85;;;7.50;99.00;;;;;;5082859;28;20048;-70
2021/01/30 09:23:59;;;;;;;7.57;4.00;;;7.90;96.40;;;;;;5081452;28;20040;-69
2021/01/30 09:26:43;;;;;;;22.02;11.00;;;7.50;97.20;;;;;;5082602;28;20043;-70
2021/01/30 09:29:09;;;;;;;17.35;10.52;;;7.30;99.40;;;;;;5082025;28;20047;-69
2021/01/30 09:31:35;;;;;;;11.80;5.30;;;7.20;99.90;;;;;;5082483;28;20040;-70
2021/01/30 09:34:03;;;;;;;10.32;5.97;;;6.80;99.90;;;;;;5081183;28;20043;-70
2021/01/30 09:36:48;;;;;;;8.52;5.07;;;6.30;99.90;;;;;;5082384;28;20071;-70
2021/01/30 09:39:28;;;;;;;5.88;4.28;;;6.10;99.90;;;;;;5081675;28;20245;-69
2021/01/30 09:42:13;;;;;;;7.15;4.65;;;6.10;99.90;;;;;;5082732;28;20109;-70
2021/01/30 09:44:39;;;;;;;16.65;7.28;;;6.10;99.90;;;;;;5089396;28;20074;-70
2021/01/30 09:47:14;;;;;;;12.70;6.90;;;6.70;99.90;;;;;;5081936;28;20056;-70
2021/01/30 09:49:47;;;;;;;24.00;12.07;;;7.20;99.70;;;;;;5080735;28;20048;-70
2021/01/30 09:52:15;;;;;;;18.20;7.32;;;6.50;99.90;;;;;;5081955;28;20048;-70
2021/01/30 09:54:41;;;;;;;14.10;6.88;;;7.20;98.60;;;;;;5082133;28;20535;-70
2021/01/30 09:57:13;;;;;;;18.23;8.20;;;7.50;98.30;;;;;;5075488;28;20040;-71
2021/01/30 09:59:39;;;;;;;29.90;11.20;;;8.20;96.60;;;;;;5078885;28;20052;-70
2021/01/30 10:02:27;;;;;;;22.40;10.15;;;8.40;95.30;;;;;;5114600;27;20032;-71
2021/01/30 10:05:13;;;;;;;8.73;4.25;;;8.40;95.60;;;;;;5080320;28;20044;-68
2021/01/30 10:07:40;;;;;;;7.25;4.38;;;7.60;95.70;;;;;;5082013;28;20043;-69
2021/01/30 10:10:30;;;;;;;5.60;3.70;;;7.60;95.00;;;;;;5085888;28;20047;-70
2021/01/30 10:12:59;;;;;;;6.63;3.78;;;8.20;95.30;;;;;;5080635;28;20158;-69
2021/01/30 10:15:36;;;;;;;7.43;4.45;;;7.80;95.40;;;;;;5081888;28;20054;-69
2021/01/30 10:18:29;;;;;;;9.48;4.10;;;7.60;96.00;;;;;;5081748;28;20055;-70
2021/01/30 10:21:00;;;;;;;10.85;3.80;;;7.60;95.90;;;;;;5081837;28;20048;-71
2021/01/30 10:23:36;;;;;;;5.75;4.03;;;7.20;96.80;;;;;;5081623;28;20047;-70
2021/01/30 10:26:11;;;;;;;4.80;4.00;;;6.70;98.70;;;;;;5080714;28;20040;-72
2021/01/30 10:29:00;;;;;;;5.03;3.25;;;6.60;98.30;;;;;;5078599;28;20040;-70
2021/01/30 10:31:36;;;;;;;10.82;4.18;;;6.80;97.10;;;;;;5081739;28;20488;-72
2021/01/30 10:34:16;;;;;;;6.03;4.05;;;7.00;97.60;;;;;;5081200;28;20147;-71
2021/01/30 10:36:52;;;;;;;5.57;4.00;;;7.40;95.70;;;;;;5081070;28;20329;-70
2021/01/30 10:39:18;;;;;;;6.70;4.07;;;7.70;95.10;;;;;;5080926;28;20058;-70
2021/01/30 10:41:44;;;;;;;5.93;3.67;;;7.30;95.10;;;;;;5092100;28;20491;-70
2021/01/30 10:44:17;;;;;;;9.30;5.03;;;7.30;96.90;;;;;;5080284;28;20051;-72
2021/01/30 10:46:44;;;;;;;;;;;6.90;98.70;;;;;;5082716;28;20054;-69
2021/01/30 10:49:21;;;;;;;6.95;4.13;;;6.20;98.50;;;;;;5082232;28;20101;-71
2021/01/30 10:51:55;;;;;;;7.00;4.03;;;5.50;99.50;;;;;;5081483;28;20048;-71
2021/01/30 10:54:27;;;;;;;7.40;4.32;;;5.80;99.90;;;;;;5082010;28;20044;-70
2021/01/30 10:57:16;;;;;;;5.63;3.70;;;5.80;99.90;;;;;;5082678;28;20697;-70
2021/01/30 10:59:59;;;;;;;7.28;4.13;;;6.50;99.90;;;;;;5080175;28;20162;-70
2021/01/30 11:02:28;;;;;;;;;;;5.50;99.90;;;;;;5082312;28;20496;-70
2021/01/30 11:05:11;;;;;;;6.68;4.03;;;6.00;99.90;;;;;;5080730;28;20323;-70
2021/01/30 11:07:41;;;;;;;;;;;5.30;99.90;;;;;;5075183;28;20047;-69
2021/01/30 11:10:52;;;;;;;6.28;4.05;;;5.10;99.90;;;;;;5079738;28;19985;-70
2021/01/30 11:13:18;;;;;;;7.00;3.90;;;5.20;99.90;;;;;;5016034;28;20046;-69
2021/01/30 11:15:45;;;;;;;7.50;4.68;;;4.80;99.90;;;;;;5067635;28;20121;-68
2021/01/30 11:18:33;;;;;;;7.40;4.38;;;4.60;99.90;;;;;;5079538;28;20040;-70
2021/01/30 11:21:00;;;;;;;5.25;4.47;;;5.50;99.90;;;;;;5080888;28;20047;-70
2021/01/30 11:23:37;;;;;;;5.55;4.10;;;5.60;99.90;;;;;;5085116;28;20086;-71
2021/01/30 11:26:24;;;;;;;6.75;4.40;;;5.70;99.90;;;;;;5084833;28;20044;-69
2021/01/30 11:28:50;;;;;;;6.07;4.88;;;5.60;99.90;;;;;;5085067;28;20059;-69
2021/01/30 11:31:16;;;;;;;9.38;4.57;;;5.40;99.90;;;;;;5082771;28;20040;-70
2021/01/30 11:33:43;;;;;;;7.22;5.03;;;5.40;99.90;;;;;;5084234;28;20159;-70
2021/01/30 11:36:15;;;;;;;8.02;5.28;;;5.70;99.90;;;;;;5084904;28;20032;-69
2021/01/30 11:38:41;;;;;;;8.15;4.75;;;5.70;99.90;;;;;;5084724;28;20392;-69
2021/01/30 11:41:08;;;;;;;4.55;3.72;;;5.20;99.90;;;;;;5077160;28;20136;-69
2021/01/30 11:43:34;;;;;;;8.93;4.57;;;5.50;99.90;;;;;;5081432;28;20118;-69
2021/01/30 11:46:00;;;;;;;6.28;4.50;;;5.60;99.90;;;;;;5082342;28;20531;-70
2021/01/30 11:48:25;;;;;;;6.32;4.82;;;5.50;99.90;;;;;;5082728;28;20331;-69
2021/01/30 11:50:51;;;;;;;5.18;4.32;;;5.70;99.60;;;;;;5081395;28;20044;-70
2021/01/30 11:53:22;;;;;;;8.73;5.03;;;5.70;99.90;;;;;;5080581;28;20051;-71
2021/01/30 11:55:48;;;;;;;8.02;4.65;;;6.20;99.20;;;;;;5081375;28;20068;-69
2021/01/30 11:58:16;;;;;;;7.20;5.07;;;6.40;98.90;;;;;;5082487;28;20389;-69
2021/01/30 12:00:42;;;;;;;6.40;4.53;;;6.60;97.60;;;;;;5082094;28;20094;-71
2021/01/30 12:03:20;;;;;;;5.30;4.70;;;7.20;96.30;;;;;;5082194;28;20132;-71
2021/01/30 12:05:46;;;;;;;7.63;5.05;;;7.70;94.50;;;;;;5084215;28;20470;-70
2021/01/30 12:08:11;;;;;;;7.20;4.30;;;7.40;93.60;;;;;;5083050;28;20039;-70
2021/01/30 12:10:37;;;;;;;7.35;4.38;;;7.90;92.30;;;;;;5083403;28;20044;-70
2021/01/30 12:13:02;;;;;;;6.05;5.22;;;8.00;92.00;;;;;;5078486;28;20048;-70
2021/01/30 12:15:28;;;;;;;6.20;4.63;;;7.40;92.80;;;;;;5074511;28;20048;-72
2021/01/30 12:17:54;;;;;;;7.43;4.40;;;8.10;91.20;;;;;;5083384;28;20409;-71
2021/01/30 12:20:27;;;;;;;8.32;4.75;;;7.60;90.70;;;;;;5084892;28;20048;-69
2021/01/30 12:22:53;;;;;;;6.90;4.93;;;7.50;91.40;;;;;;5099441;28;20051;-70
2021/01/30 12:25:19;;;;;;;8.07;5.22;;;7.20;92.80;;;;;;5081416;28;20052;-70
2021/01/30 12:27:52;;;;;;;6.28;5.00;;;7.20;93.30;;;;;;5083521;28;20672;-70
2021/01/30 12:30:19;;;;;;;9.18;5.25;;;7.40;93.50;;;;;;5083819;28;20507;-71
2021/01/30 12:32:45;;;;;;;7.88;5.47;;;7.10;94.10;;;;;;5083481;28;20070;-69
2021/01/30 12:35:11;;;;;;;5.93;5.13;;;7.00;94.20;;;;;;5082721;28;20036;-71
2021/01/30 12:37:37;;;;;;;6.97;4.90;;;6.50;94.90;;;;;;5082371;28;20239;-71
2021/01/30 12:40:04;;;;;;;7.18;5.18;;;6.60;95.50;;;;;;5081606;28;20515;-71
2021/01/30 12:42:30;;;;;;;7.35;5.32;;;6.80;94.50;;;;;;5082574;28;20048;-71
2021/01/30 12:44:56;;;;;;;6.28;5.10;;;6.10;95.60;;;;;;5083797;28;20490;-71
2021/01/30 12:47:27;;;;;;;7.07;5.22;;;6.20;96.60;;;;;;5083844;28;20066;-71
2021/01/30 12:49:52;;;;;;;7.40;5.43;;;5.70;97.20;;;;;;5083788;28;20268;-71
2021/01/30 12:52:18;;;;;;;8.82;5.65;;;5.60;98.40;;;;;;5083082;28;20052;-71
2021/01/30 12:54:43;;;;;;;10.20;5.97;;;5.60;99.70;;;;;;5083240;28;20248;-70
2021/01/30 12:57:09;;;;;;;9.57;6.25;;;5.40;99.90;;;;;;5083064;28;20184;-71
2021/01/30 12:59:35;;;;;;;8.05;5.43;;;4.90;99.90;;;;;;5081250;28;20052;-70
2021/01/30 13:02:01;;;;;;;6.50;5.80;;;4.70;99.90;;;;;;5081394;28;20036;-70
2021/01/30 13:04:26;;;;;;;11.52;6.00;;;4.60;99.90;;;;;;5082058;28;20055;-70
2021/01/30 13:06:52;;;;;;;6.43;5.57;;;4.60;99.90;;;;;;5082782;28;20404;-69
2021/01/30 13:09:20;;;;;;;7.07;6.20;;;4.60;99.90;;;;;;5082513;28;20052;-71
2021/01/30 13:11:46;;;;;;;7.82;5.43;;;4.50;99.90;;;;;;5082602;28;20571;-71
2021/01/30 13:14:12;;;;;;;6.88;5.82;;;4.30;99.90;;;;;;5075893;28;20052;-69
2021/01/30 13:16:38;;;;;;;8.85;5.78;;;4.40;99.90;;;;;;5078415;28;20101;-70
2021/01/30 13:19:04;;;;;;;6.38;5.78;;;4.50;99.90;;;;;;5082603;28;20052;-69
2021/01/30 13:21:32;;;;;;;8.32;6.28;;;4.30;99.90;;;;;;5082873;28;20044;-70
2021/01/30 13:24:00;;;;;;;13.90;7.40;;;4.00;99.90;;;;;;5079616;28;20036;-70
2021/01/30 13:26:26;;;;;;;6.95;5.43;;;4.00;99.90;;;;;;5081076;28;20052;-71